createdAt,value
2022-08-22T00:00:15.873Z,3.70
2022-08-22T00:01:15.796Z,3.50
2022-08-22T00:02:15.752Z,3.60
2022-08-22T00:02:41.709Z,2.60
2022-08-22T00:02:47.781Z,3.10
2022-08-22T00:02:57.377Z,3.00
2022-08-22T00:03:04.818Z,3.00
2022-08-22T00:03:06.814Z,3.50
2022-08-22T00:03:15.976Z,3.50
2022-08-22T00:03:18.451Z,3.30
2022-08-22T00:04:16.683Z,3.60
2022-08-22T00:05:15.672Z,3.60
2022-08-22T00:06:15.675Z,3.40
2022-08-22T00:07:15.700Z,3.30
2022-08-22T00:08:15.647Z,3.30
2022-08-22T00:09:15.639Z,3.20
2022-08-22T00:10:22.845Z,3.70
2022-08-22T00:11:16.768Z,3.50
2022-08-22T00:12:15.616Z,3.60
2022-08-22T00:13:15.615Z,3.80
2022-08-22T00:14:15.611Z,3.60
2022-08-22T00:15:31.715Z,3.50
2022-08-22T00:16:16.591Z,3.60
2022-08-22T00:17:15.663Z,3.50
2022-08-22T00:18:15.575Z,3.70
2022-08-22T00:19:15.575Z,3.50
2022-08-22T00:20:15.571Z,3.70
2022-08-22T00:21:15.561Z,3.40
2022-08-22T00:22:15.556Z,3.40
2022-08-22T00:23:15.552Z,3.50
2022-08-22T00:24:15.536Z,3.40
2022-08-22T00:25:25.853Z,3.60
2022-08-22T00:26:16.556Z,3.20
2022-08-22T00:27:15.535Z,3.60
2022-08-22T00:28:15.504Z,3.20
2022-08-22T00:29:15.505Z,3.40
2022-08-22T00:30:15.496Z,3.50
2022-08-22T00:31:15.511Z,3.60
2022-08-22T00:32:15.503Z,3.50
2022-08-22T00:33:15.471Z,3.40
2022-08-22T00:34:15.464Z,3.40
2022-08-22T00:35:15.460Z,4.00
2022-08-22T00:36:15.475Z,3.60
2022-08-22T00:37:15.446Z,4.00
2022-08-22T00:38:15.461Z,3.70
2022-08-22T00:39:15.427Z,3.90
2022-08-22T00:40:15.457Z,3.40
2022-08-22T00:41:15.420Z,3.30
2022-08-22T00:42:15.415Z,3.50
2022-08-22T00:43:16.420Z,3.50
2022-08-22T00:44:15.395Z,3.70
2022-08-22T00:45:15.395Z,4.30
2022-08-22T00:46:15.387Z,3.70
2022-08-22T00:47:15.379Z,3.60
2022-08-22T00:48:15.368Z,3.60
2022-08-22T00:49:15.379Z,3.40
2022-08-22T00:50:15.358Z,3.60
2022-08-22T00:51:15.336Z,3.20
2022-08-22T00:52:16.345Z,3.80
2022-08-22T00:53:15.335Z,3.70
2022-08-22T00:54:18.000Z,3.70
2022-08-22T00:55:15.319Z,3.60
2022-08-22T00:56:15.315Z,3.70
2022-08-22T00:57:15.307Z,3.70
2022-08-22T00:58:15.303Z,3.70
2022-08-22T00:59:23.738Z,3.40
2022-08-22T01:00:16.289Z,3.60
2022-08-22T01:01:15.324Z,3.90
2022-08-22T01:02:15.268Z,3.90
2022-08-22T01:03:15.254Z,4.00
2022-08-22T01:04:15.271Z,3.50
2022-08-22T01:05:15.256Z,3.30
2022-08-22T01:06:15.239Z,3.60
2022-08-22T01:07:15.235Z,3.60
2022-08-22T01:08:15.227Z,3.70
2022-08-22T01:09:15.215Z,3.60
2022-08-22T01:10:15.235Z,3.90
2022-08-22T01:11:15.204Z,3.40
2022-08-22T01:12:15.195Z,3.60
2022-08-22T01:13:15.190Z,3.30
2022-08-22T01:14:15.187Z,3.50
2022-08-22T01:15:15.189Z,3.60
2022-08-22T01:16:15.167Z,3.80
2022-08-22T01:17:15.163Z,3.30
2022-08-22T01:18:15.167Z,3.20
2022-08-22T01:19:15.148Z,3.30
2022-08-22T01:20:15.142Z,3.40
2022-08-22T01:21:15.147Z,3.80
2022-08-22T01:22:16.136Z,3.80
2022-08-22T01:23:15.122Z,3.80
2022-08-22T01:24:15.114Z,3.70
2022-08-22T01:25:15.111Z,3.50
2022-08-22T01:26:15.120Z,3.90
2022-08-22T01:27:15.099Z,3.50
2022-08-22T01:28:15.079Z,4.10
2022-08-22T01:29:15.067Z,3.70
2022-08-22T01:30:15.071Z,3.80
2022-08-22T01:31:15.076Z,3.40
2022-08-22T01:32:15.057Z,3.50
2022-08-22T01:33:15.059Z,3.60
2022-08-22T01:34:15.038Z,3.70
2022-08-22T01:35:15.031Z,3.60
2022-08-22T01:36:15.027Z,3.50
2022-08-22T01:37:15.035Z,3.50
2022-08-22T01:38:15.006Z,3.30
2022-08-22T01:39:15.011Z,3.80
2022-08-22T01:40:15.078Z,3.80
2022-08-22T01:41:14.986Z,3.50
2022-08-22T01:42:15.241Z,3.60
2022-08-22T01:43:14.974Z,3.60
2022-08-22T01:44:14.971Z,3.80
2022-08-22T01:45:14.967Z,3.90
2022-08-22T01:46:14.958Z,3.30
2022-08-22T01:47:14.967Z,4.00
2022-08-22T01:48:14.944Z,4.00
2022-08-22T01:49:14.937Z,4.00
2022-08-22T01:50:14.926Z,3.90
2022-08-22T01:51:14.922Z,4.30
2022-08-22T01:52:14.930Z,4.30
2022-08-22T01:53:14.923Z,3.90
2022-08-22T01:54:14.910Z,4.30
2022-08-22T01:55:14.906Z,4.00
2022-08-22T01:56:14.894Z,3.60
2022-08-22T01:57:14.882Z,4.10
2022-08-22T01:58:15.895Z,3.80
2022-08-22T01:59:14.873Z,3.70
2022-08-22T02:00:14.883Z,3.60
2022-08-22T02:01:14.905Z,3.90
2022-08-22T02:02:14.850Z,3.60
2022-08-22T02:03:14.854Z,3.80
2022-08-22T02:04:14.835Z,3.40
2022-08-22T02:05:14.827Z,4.10
2022-08-22T02:06:14.831Z,3.50
2022-08-22T02:07:14.818Z,3.80
2022-08-22T02:08:14.823Z,3.60
2022-08-22T02:09:14.809Z,3.80
2022-08-22T02:10:14.806Z,3.80
2022-08-22T02:11:14.798Z,3.70
2022-08-22T02:12:21.853Z,3.60
2022-08-22T02:13:15.804Z,3.80
2022-08-22T02:14:14.771Z,3.80
2022-08-22T02:15:14.767Z,4.10
2022-08-22T02:16:14.766Z,3.80
2022-08-22T02:17:14.762Z,3.80
2022-08-22T02:18:14.779Z,3.40
2022-08-22T02:19:14.730Z,3.70
2022-08-22T02:20:14.740Z,4.20
2022-08-22T02:21:14.726Z,3.70
2022-08-22T02:22:14.733Z,3.80
2022-08-22T02:23:14.717Z,4.00
2022-08-22T02:24:14.730Z,3.90
2022-08-22T02:25:14.714Z,4.00
2022-08-22T02:26:14.702Z,3.80
2022-08-22T02:27:14.698Z,3.80
2022-08-22T02:28:14.690Z,4.00
2022-08-22T02:29:14.698Z,4.10
2022-08-22T02:30:14.674Z,3.80
2022-08-22T02:31:16.652Z,4.40
2022-08-22T02:32:14.667Z,4.20
2022-08-22T02:33:14.654Z,4.30
2022-08-22T02:34:14.666Z,4.20
2022-08-22T02:35:14.644Z,4.60
2022-08-22T02:36:14.660Z,4.60
2022-08-22T02:37:14.638Z,4.30
2022-08-22T02:38:14.643Z,4.30
2022-08-22T02:39:14.618Z,4.40
2022-08-22T02:40:14.773Z,4.60
2022-08-22T02:41:14.626Z,4.40
2022-08-22T02:42:14.610Z,4.40
2022-08-22T02:43:14.598Z,4.10
2022-08-22T02:44:14.590Z,4.20
2022-08-22T02:45:14.575Z,4.30
2022-08-22T02:46:14.599Z,4.00
2022-08-22T02:47:14.574Z,4.30
2022-08-22T02:48:14.570Z,4.10
2022-08-22T02:49:14.558Z,3.90
2022-08-22T02:50:14.537Z,4.30
2022-08-22T02:51:14.547Z,4.50
2022-08-22T02:52:14.543Z,4.40
2022-08-22T02:53:14.534Z,5.10
2022-08-22T02:54:14.518Z,4.50
2022-08-22T02:55:14.510Z,4.60
2022-08-22T02:56:14.516Z,4.30
2022-08-22T02:57:14.750Z,4.30
2022-08-22T02:58:14.489Z,4.30
2022-08-22T02:59:15.499Z,4.50
2022-08-22T03:00:31.918Z,4.10
2022-08-22T03:01:15.522Z,4.00
2022-08-22T03:02:14.475Z,4.20
2022-08-22T03:03:14.464Z,3.80
2022-08-22T03:04:14.462Z,4.10
2022-08-22T03:05:14.450Z,4.00
2022-08-22T03:06:14.439Z,4.10
2022-08-22T03:07:15.450Z,3.70
2022-08-22T03:08:14.450Z,3.90
2022-08-22T03:09:14.426Z,4.30
2022-08-22T03:10:14.426Z,3.90
2022-08-22T03:11:14.421Z,3.80
2022-08-22T03:12:14.405Z,4.10
2022-08-22T03:13:14.407Z,4.00
2022-08-22T03:14:14.399Z,4.10
2022-08-22T03:15:14.410Z,4.20
2022-08-22T03:16:14.386Z,4.20
2022-08-22T03:17:14.393Z,4.10
2022-08-22T03:18:14.374Z,3.80
2022-08-22T03:19:18.870Z,4.20
2022-08-22T03:20:14.362Z,4.40
2022-08-22T03:21:14.361Z,4.20
2022-08-22T03:22:14.349Z,3.90
2022-08-22T03:23:14.355Z,4.10
2022-08-22T03:24:14.335Z,4.00
2022-08-22T03:25:14.326Z,3.80
2022-08-22T03:26:14.313Z,4.00
2022-08-22T03:27:14.333Z,4.00
2022-08-22T03:28:15.326Z,4.10
2022-08-22T03:29:14.302Z,4.00
2022-08-22T03:30:14.302Z,4.10
2022-08-22T03:31:14.298Z,3.90
2022-08-22T03:32:14.290Z,4.10
2022-08-22T03:33:14.302Z,4.10
2022-08-22T03:34:14.262Z,4.10
2022-08-22T03:35:14.266Z,4.40
2022-08-22T03:36:14.260Z,4.20
2022-08-22T03:37:14.247Z,4.20
2022-08-22T03:38:15.278Z,4.30
2022-08-22T03:39:17.236Z,3.90
2022-08-22T03:40:14.298Z,4.20
2022-08-22T03:41:14.238Z,4.10
2022-08-22T03:42:14.234Z,4.70
2022-08-22T03:43:14.209Z,4.30
2022-08-22T03:44:14.226Z,4.10
2022-08-22T03:45:14.218Z,4.10
2022-08-22T03:46:14.185Z,4.30
2022-08-22T03:47:14.213Z,3.90
2022-08-22T03:48:14.198Z,4.20
2022-08-22T03:49:14.198Z,4.10
2022-08-22T03:50:14.177Z,4.00
2022-08-22T03:51:14.169Z,4.10
2022-08-22T03:52:14.158Z,4.10
2022-08-22T03:53:18.514Z,4.60
2022-08-22T03:54:14.183Z,3.90
2022-08-22T03:55:14.142Z,4.30
2022-08-22T03:56:14.138Z,3.90
2022-08-22T03:57:14.136Z,4.10
2022-08-22T03:58:27.638Z,4.10
2022-08-22T03:59:15.150Z,4.40
2022-08-22T04:00:14.117Z,4.20
2022-08-22T04:01:14.142Z,4.00
2022-08-22T04:02:26.205Z,4.20
2022-08-22T04:03:15.105Z,3.80
2022-08-22T04:04:14.086Z,4.40
2022-08-22T04:05:14.094Z,4.10
2022-08-22T04:06:14.086Z,4.20
2022-08-22T04:07:32.201Z,4.40
2022-08-22T04:08:15.065Z,4.90
2022-08-22T04:09:14.077Z,4.50
2022-08-22T04:10:14.063Z,4.70
2022-08-22T04:11:14.042Z,4.70
2022-08-22T04:12:14.046Z,4.60
2022-08-22T04:13:14.035Z,4.90
2022-08-22T04:14:14.025Z,4.50
2022-08-22T04:15:14.042Z,4.40
2022-08-22T04:16:14.009Z,4.90
2022-08-22T04:17:14.005Z,5.20
2022-08-22T04:18:13.997Z,5.30
2022-08-22T04:19:13.987Z,4.80
2022-08-22T04:20:16.614Z,4.80
2022-08-22T04:21:13.977Z,4.70
2022-08-22T04:22:13.971Z,5.10
2022-08-22T04:23:13.961Z,5.10
2022-08-22T04:24:13.977Z,5.20
2022-08-22T04:25:13.961Z,4.90
2022-08-22T04:26:13.970Z,4.80
2022-08-22T04:27:13.954Z,5.60
2022-08-22T04:28:13.942Z,4.90
2022-08-22T04:29:13.937Z,4.60
2022-08-22T04:30:13.930Z,4.70
2022-08-22T04:31:13.945Z,4.70
2022-08-22T04:32:14.754Z,4.40
2022-08-22T04:33:14.905Z,4.70
2022-08-22T04:34:13.901Z,5.00
2022-08-22T04:35:13.901Z,4.70
2022-08-22T04:36:13.894Z,4.40
2022-08-22T04:37:13.898Z,4.40
2022-08-22T04:38:13.873Z,4.40
2022-08-22T04:39:13.864Z,4.90
2022-08-22T04:40:13.926Z,4.80
2022-08-22T04:41:13.853Z,4.60
2022-08-22T04:42:31.656Z,4.10
2022-08-22T04:43:15.849Z,4.50
2022-08-22T04:44:13.841Z,4.30
2022-08-22T04:45:13.850Z,4.30
2022-08-22T04:46:13.837Z,4.40
2022-08-22T04:47:13.841Z,4.10
2022-08-22T04:48:13.837Z,4.30
2022-08-22T04:49:13.813Z,4.40
2022-08-22T04:50:13.809Z,4.00
2022-08-22T04:51:13.802Z,4.40
2022-08-22T04:52:13.849Z,4.90
2022-08-22T04:53:13.799Z,4.70
2022-08-22T04:54:13.788Z,4.40
2022-08-22T04:55:13.782Z,4.70
2022-08-22T04:56:13.776Z,5.20
2022-08-22T04:57:13.768Z,5.50
2022-08-22T04:58:13.775Z,5.00
2022-08-22T04:59:13.757Z,4.40
2022-08-22T05:00:13.750Z,4.90
2022-08-22T05:01:13.783Z,4.80
2022-08-22T05:02:13.736Z,4.90
2022-08-22T05:03:13.758Z,4.90
2022-08-22T05:04:13.739Z,4.70
2022-08-22T05:05:13.996Z,4.70
2022-08-22T05:06:13.710Z,4.70
2022-08-22T05:07:13.699Z,5.20
2022-08-22T05:08:13.723Z,4.80
2022-08-22T05:09:16.191Z,5.10
2022-08-22T05:10:14.684Z,4.70
2022-08-22T05:11:13.679Z,4.70
2022-08-22T05:12:13.676Z,5.00
2022-08-22T05:13:13.671Z,4.90
2022-08-22T05:14:13.675Z,4.80
2022-08-22T05:15:13.659Z,4.80
2022-08-22T05:16:13.650Z,4.60
2022-08-22T05:17:16.937Z,4.60
2022-08-22T05:18:13.635Z,4.60
2022-08-22T05:19:16.785Z,5.20
2022-08-22T05:20:14.633Z,4.60
2022-08-22T05:21:14.638Z,4.90
2022-08-22T05:22:13.615Z,4.30
2022-08-22T05:23:17.060Z,5.20
2022-08-22T05:24:13.610Z,5.60
2022-08-22T05:25:13.602Z,5.70
2022-08-22T05:26:13.587Z,4.90
2022-08-22T05:27:13.575Z,4.60
2022-08-22T05:28:13.571Z,5.00
2022-08-22T05:29:13.567Z,5.30
2022-08-22T05:30:13.570Z,5.00
2022-08-22T05:31:13.561Z,4.80
2022-08-22T05:32:13.553Z,5.00
2022-08-22T05:33:13.539Z,5.00
2022-08-22T05:34:13.544Z,5.30
2022-08-22T05:35:13.550Z,5.00
2022-08-22T05:36:13.527Z,5.20
2022-08-22T05:37:13.516Z,5.10
2022-08-22T05:38:13.514Z,5.00
2022-08-22T05:39:13.508Z,5.20
2022-08-22T05:40:13.586Z,4.70
2022-08-22T05:41:13.501Z,5.00
2022-08-22T05:42:13.494Z,5.10
2022-08-22T05:43:13.495Z,5.20
2022-08-22T05:44:13.485Z,5.50
2022-08-22T05:45:13.474Z,5.20
2022-08-22T05:46:13.475Z,5.20
2022-08-22T05:47:13.467Z,5.40
2022-08-22T05:48:13.457Z,4.80
2022-08-22T05:49:13.446Z,5.40
2022-08-22T05:50:13.447Z,5.00
2022-08-22T05:51:13.443Z,5.20
2022-08-22T05:52:13.424Z,4.80
2022-08-22T05:53:13.423Z,5.10
2022-08-22T05:54:13.423Z,5.00
2022-08-22T05:55:13.411Z,5.40
2022-08-22T05:56:13.432Z,5.40
2022-08-22T05:57:13.415Z,5.40
2022-08-22T05:58:13.399Z,5.60
2022-08-22T05:59:13.401Z,5.80
2022-08-22T06:00:13.388Z,5.30
2022-08-22T06:01:13.390Z,5.70
2022-08-22T06:02:13.457Z,5.40
2022-08-22T06:03:13.369Z,5.50
2022-08-22T06:04:13.370Z,5.10
2022-08-22T06:05:13.350Z,5.30
2022-08-22T06:06:13.359Z,4.90
2022-08-22T06:07:13.370Z,5.40
2022-08-22T06:08:13.326Z,5.30
2022-08-22T06:09:13.321Z,5.20
2022-08-22T06:10:13.317Z,5.00
2022-08-22T06:11:13.305Z,5.20
2022-08-22T06:12:21.593Z,5.00
2022-08-22T06:13:15.297Z,5.20
2022-08-22T06:14:14.292Z,5.00
2022-08-22T06:15:13.289Z,5.20
2022-08-22T06:16:13.277Z,5.10
2022-08-22T06:17:13.297Z,5.20
2022-08-22T06:18:13.261Z,5.50
2022-08-22T06:19:19.193Z,5.30
2022-08-22T06:20:14.241Z,5.30
2022-08-22T06:21:14.245Z,5.10
2022-08-22T06:22:18.784Z,5.10
2022-08-22T06:23:14.228Z,5.30
2022-08-22T06:24:13.232Z,5.10
2022-08-22T06:25:13.216Z,5.00
2022-08-22T06:26:20.455Z,5.40
2022-08-22T06:27:14.216Z,4.70
2022-08-22T06:28:13.185Z,5.10
2022-08-22T06:29:13.181Z,5.30
2022-08-22T06:30:13.169Z,5.20
2022-08-22T06:31:13.183Z,5.00
2022-08-22T06:32:13.157Z,5.20
2022-08-22T06:33:13.238Z,4.90
2022-08-22T06:34:13.152Z,4.60
2022-08-22T06:35:13.141Z,5.10
2022-08-22T06:36:13.124Z,5.30
2022-08-22T06:37:13.132Z,5.50
2022-08-22T06:38:13.129Z,5.80
2022-08-22T06:39:13.105Z,5.10
2022-08-22T06:40:13.150Z,5.00
2022-08-22T06:41:13.094Z,5.10
2022-08-22T06:42:16.487Z,4.90
2022-08-22T06:43:14.099Z,4.70
2022-08-22T06:44:13.073Z,5.00
2022-08-22T06:45:13.061Z,5.20
2022-08-22T06:46:13.057Z,5.50
2022-08-22T06:47:13.053Z,5.00
2022-08-22T06:48:13.050Z,4.80
2022-08-22T06:49:13.038Z,5.10
2022-08-22T06:50:13.933Z,4.40
2022-08-22T06:51:13.022Z,5.20
2022-08-22T06:52:13.007Z,5.10
2022-08-22T06:53:13.021Z,4.80
2022-08-22T06:54:12.989Z,5.10
2022-08-22T06:55:12.990Z,4.70
2022-08-22T06:56:13.000Z,4.80
2022-08-22T06:57:12.984Z,4.60
2022-08-22T06:58:12.974Z,4.50
2022-08-22T06:59:12.970Z,4.00
2022-08-22T07:00:12.954Z,5.20
2022-08-22T07:01:12.969Z,5.00
2022-08-22T07:02:13.058Z,4.80
2022-08-22T07:03:12.938Z,4.90
2022-08-22T07:04:12.930Z,4.80
2022-08-22T07:05:12.922Z,4.50
2022-08-22T07:06:12.930Z,4.40
2022-08-22T07:07:12.914Z,4.30
2022-08-22T07:08:12.905Z,4.40
2022-08-22T07:09:12.906Z,4.40
2022-08-22T07:10:12.890Z,4.60
2022-08-22T07:11:12.925Z,4.40
2022-08-22T07:12:12.886Z,4.30
2022-08-22T07:13:12.869Z,4.40
2022-08-22T07:14:12.862Z,4.10
2022-08-22T07:15:12.866Z,4.40
2022-08-22T07:16:12.853Z,4.30
2022-08-22T07:17:12.859Z,4.40
2022-08-22T07:18:12.834Z,4.10
2022-08-22T07:19:13.834Z,4.50
2022-08-22T07:20:12.822Z,4.60
2022-08-22T07:21:12.822Z,4.50
2022-08-22T07:22:12.824Z,4.20
2022-08-22T07:23:12.801Z,4.50
2022-08-22T07:24:12.794Z,4.40
2022-08-22T07:25:12.798Z,4.20
2022-08-22T07:26:12.790Z,4.50
2022-08-22T07:27:12.794Z,4.20
2022-08-22T07:28:12.791Z,4.10
2022-08-22T07:29:12.769Z,4.10
2022-08-22T07:30:12.896Z,4.20
2022-08-22T07:31:12.877Z,4.10
2022-08-22T07:32:12.753Z,4.30
2022-08-22T07:33:25.214Z,4.60
2022-08-22T07:34:13.766Z,3.70
2022-08-22T07:35:12.731Z,3.80
2022-08-22T07:36:12.723Z,3.80
2022-08-22T07:37:12.728Z,4.10
2022-08-22T07:38:12.701Z,4.00
2022-08-22T07:39:12.718Z,4.50
2022-08-22T07:40:12.719Z,4.30
2022-08-22T07:41:12.708Z,4.40
2022-08-22T07:42:12.696Z,4.00
2022-08-22T07:43:12.679Z,4.50
2022-08-22T07:44:12.667Z,4.60
2022-08-22T07:45:12.661Z,4.60
2022-08-22T07:46:12.657Z,4.40
2022-08-22T07:47:12.651Z,4.20
2022-08-22T07:48:17.221Z,4.40
2022-08-22T07:49:13.637Z,4.10
2022-08-22T07:50:13.634Z,3.90
2022-08-22T07:51:12.622Z,4.00
2022-08-22T07:52:12.613Z,7.30
2022-08-22T07:53:13.448Z,11.10
2022-08-22T07:54:12.615Z,5.60
2022-08-22T07:55:12.609Z,4.30
2022-08-22T07:56:12.581Z,4.00
2022-08-22T07:57:12.577Z,4.20
2022-08-22T07:58:12.577Z,4.10
2022-08-22T07:59:13.239Z,4.00
2022-08-22T08:00:12.561Z,4.00
2022-08-22T08:01:12.601Z,4.70
2022-08-22T08:02:12.571Z,4.40
2022-08-22T08:03:12.541Z,4.00
2022-08-22T08:04:12.541Z,4.00
2022-08-22T08:05:12.536Z,4.10
2022-08-22T08:06:12.537Z,4.10
2022-08-22T08:07:12.613Z,3.90
2022-08-22T08:08:13.822Z,4.20
2022-08-22T08:09:12.513Z,4.00
2022-08-22T08:10:13.304Z,4.00
2022-08-22T08:11:13.492Z,4.00
2022-08-22T08:12:12.485Z,4.30
2022-08-22T08:13:12.478Z,4.60
2022-08-22T08:14:13.553Z,4.40
2022-08-22T08:15:12.485Z,4.80
2022-08-22T08:16:12.461Z,4.30
2022-08-22T08:17:12.449Z,4.50
2022-08-22T08:18:12.455Z,5.20
2022-08-22T08:19:12.440Z,4.60
2022-08-22T08:20:12.449Z,4.40
2022-08-22T08:21:12.429Z,4.60
2022-08-22T08:22:12.422Z,4.30
2022-08-22T08:23:12.409Z,4.30
2022-08-22T08:24:12.409Z,4.40
2022-08-22T08:25:12.406Z,4.10
2022-08-22T08:26:12.408Z,4.50
2022-08-22T08:27:12.411Z,4.00
2022-08-22T08:28:12.384Z,4.40
2022-08-22T08:29:12.373Z,4.20
2022-08-22T08:30:15.481Z,3.90
2022-08-22T08:31:13.374Z,4.10
2022-08-22T08:32:12.358Z,4.20
2022-08-22T08:33:26.106Z,4.50
2022-08-22T08:34:13.357Z,4.00
2022-08-22T08:35:12.342Z,3.70
2022-08-22T08:36:12.333Z,3.80
2022-08-22T08:37:12.802Z,3.50
2022-08-22T08:38:12.333Z,3.50
2022-08-22T08:39:12.349Z,3.60
2022-08-22T08:40:12.368Z,3.70
2022-08-22T08:41:12.300Z,3.70
2022-08-22T08:42:12.289Z,4.40
2022-08-22T08:43:12.313Z,3.80
2022-08-22T08:44:12.273Z,3.60
2022-08-22T08:45:12.272Z,3.80
2022-08-22T08:46:12.269Z,3.60
2022-08-22T08:47:12.261Z,3.40
2022-08-22T08:48:12.256Z,3.60
2022-08-22T08:49:12.273Z,3.10
2022-08-22T08:50:12.245Z,3.20
2022-08-22T08:51:12.237Z,3.30
2022-08-22T08:52:12.461Z,3.80
2022-08-22T08:53:12.212Z,3.40
2022-08-22T08:54:12.227Z,3.50
2022-08-22T08:55:21.710Z,3.90
2022-08-22T08:56:15.618Z,3.10
2022-08-22T08:57:13.197Z,2.90
2022-08-22T08:58:12.196Z,3.30
2022-08-22T08:59:12.189Z,3.30
2022-08-22T09:00:12.380Z,3.60
2022-08-22T09:01:12.239Z,3.40
2022-08-22T09:02:13.730Z,3.10
2022-08-22T09:03:15.846Z,3.60
2022-08-22T09:04:15.364Z,3.10
2022-08-22T09:05:12.168Z,3.10
2022-08-22T09:06:12.145Z,3.30
2022-08-22T09:07:12.147Z,3.40
2022-08-22T09:08:12.132Z,3.10
2022-08-22T09:09:12.135Z,3.20
2022-08-22T09:10:12.132Z,3.10
2022-08-22T09:11:12.131Z,2.90
2022-08-22T09:12:12.112Z,3.20
2022-08-22T09:13:12.982Z,3.00
2022-08-22T09:14:12.108Z,3.50
2022-08-22T09:15:14.437Z,3.30
2022-08-22T09:16:12.109Z,3.40
2022-08-22T09:17:12.089Z,3.40
2022-08-22T09:18:12.079Z,3.30
2022-08-22T09:19:12.070Z,3.30
2022-08-22T09:20:18.080Z,3.20
2022-08-22T09:21:13.072Z,3.30
2022-08-22T09:22:14.182Z,3.40
2022-08-22T09:23:12.044Z,3.30
2022-08-22T09:24:12.040Z,3.30
2022-08-22T09:25:12.035Z,3.10
2022-08-22T09:26:12.039Z,3.00
2022-08-22T09:27:12.061Z,3.10
2022-08-22T09:28:13.691Z,3.10
2022-08-22T09:29:12.029Z,3.10
2022-08-22T09:30:12.012Z,3.20
2022-08-22T09:31:16.942Z,3.10
2022-08-22T09:32:13.396Z,3.10
2022-08-22T09:33:11.992Z,3.40
2022-08-22T09:34:12.021Z,3.10
2022-08-22T09:35:11.989Z,3.20
2022-08-22T09:36:12.631Z,3.20
2022-08-22T09:37:13.936Z,3.00
2022-08-22T09:38:12.000Z,3.10
2022-08-22T09:39:11.972Z,3.10
2022-08-22T09:40:16.698Z,3.00
2022-08-22T09:41:13.981Z,2.80
2022-08-22T09:42:11.949Z,2.70
2022-08-22T09:43:11.990Z,3.10
2022-08-22T09:44:12.184Z,3.30
2022-08-22T09:45:11.938Z,2.70
2022-08-22T09:46:11.935Z,3.20
2022-08-22T09:47:11.928Z,3.20
2022-08-22T09:48:11.919Z,2.80
2022-08-22T09:49:11.942Z,3.10
2022-08-22T09:50:11.920Z,3.40
2022-08-22T09:51:31.205Z,3.00
2022-08-22T09:52:15.455Z,3.20
2022-08-22T09:53:12.881Z,3.00
2022-08-22T09:54:11.913Z,3.20
2022-08-22T09:55:15.963Z,3.20
2022-08-22T09:56:15.770Z,3.10
2022-08-22T09:57:14.005Z,3.20
2022-08-22T09:58:11.851Z,3.30
2022-08-22T09:59:11.856Z,3.20
2022-08-22T10:00:11.851Z,2.80
2022-08-22T10:01:11.989Z,2.80
2022-08-22T10:02:15.329Z,2.70
2022-08-22T10:03:11.831Z,2.90
2022-08-22T10:04:11.824Z,2.80
2022-08-22T10:05:11.828Z,2.80
2022-08-22T10:06:11.811Z,2.90
2022-08-22T10:07:12.265Z,3.00
2022-08-22T10:08:12.820Z,3.30
2022-08-22T10:09:11.803Z,2.90
2022-08-22T10:10:11.796Z,2.90
2022-08-22T10:11:11.792Z,2.90
2022-08-22T10:12:12.485Z,2.90
2022-08-22T10:13:11.800Z,3.10
2022-08-22T10:14:11.778Z,3.10
2022-08-22T10:15:11.802Z,2.90
2022-08-22T10:16:11.784Z,2.70
2022-08-22T10:17:11.768Z,3.00
2022-08-22T10:18:11.773Z,3.00
2022-08-22T10:19:11.809Z,2.70
2022-08-22T10:20:11.757Z,2.80
2022-08-22T10:21:11.800Z,3.00
2022-08-22T10:22:11.741Z,2.90
2022-08-22T10:23:11.747Z,2.60
2022-08-22T10:24:11.746Z,2.80
2022-08-22T10:25:11.743Z,2.70
2022-08-22T10:26:11.739Z,2.80
2022-08-22T10:27:12.777Z,3.10
2022-08-22T10:28:11.703Z,3.00
2022-08-22T10:29:11.710Z,2.80
2022-08-22T10:30:13.168Z,2.90
2022-08-22T10:31:11.682Z,2.60
2022-08-22T10:32:14.568Z,2.50
2022-08-22T10:33:12.209Z,2.80
2022-08-22T10:34:11.669Z,2.90
2022-08-22T10:35:11.693Z,2.80
2022-08-22T10:36:12.163Z,2.80
2022-08-22T10:37:11.670Z,2.60
2022-08-22T10:38:12.383Z,2.70
2022-08-22T10:39:12.027Z,2.70
2022-08-22T10:40:12.705Z,2.80
2022-08-22T10:41:11.650Z,2.50
2022-08-22T10:42:11.653Z,2.80
2022-08-22T10:43:11.638Z,2.50
2022-08-22T10:44:11.646Z,2.40
2022-08-22T10:45:11.625Z,2.50
2022-08-22T10:46:12.654Z,2.90
2022-08-22T10:47:11.679Z,2.70
2022-08-22T10:48:11.605Z,2.50
2022-08-22T10:49:14.316Z,2.60
2022-08-22T10:50:11.703Z,2.60
2022-08-22T10:51:11.614Z,2.80
2022-08-22T10:52:15.598Z,2.70
2022-08-22T10:53:12.592Z,2.60
2022-08-22T10:54:11.597Z,2.70
2022-08-22T10:55:11.573Z,2.70
2022-08-22T10:56:11.571Z,2.50
2022-08-22T10:57:11.566Z,2.80
2022-08-22T10:58:11.585Z,3.20
2022-08-22T10:59:11.573Z,2.50
2022-08-22T11:00:11.551Z,2.90
2022-08-22T11:01:38.106Z,2.50
2022-08-22T11:02:12.541Z,2.80
2022-08-22T11:03:15.119Z,2.50
2022-08-22T11:04:12.537Z,2.60
2022-08-22T11:05:11.550Z,2.90
2022-08-22T11:06:12.762Z,2.70
2022-08-22T11:07:11.522Z,2.60
2022-08-22T11:08:11.517Z,2.60
2022-08-22T11:09:11.525Z,2.50
2022-08-22T11:10:11.535Z,2.70
2022-08-22T11:11:11.504Z,2.80
2022-08-22T11:12:11.526Z,2.60
2022-08-22T11:13:11.523Z,2.60
2022-08-22T11:14:11.523Z,2.70
2022-08-22T11:15:11.502Z,2.70
2022-08-22T11:16:11.482Z,2.60
2022-08-22T11:17:23.627Z,2.70
2022-08-22T11:18:13.077Z,2.70
2022-08-22T11:19:14.962Z,2.70
2022-08-22T11:20:11.481Z,2.50
2022-08-22T11:21:11.454Z,2.40
2022-08-22T11:22:11.437Z,2.40
2022-08-22T11:23:12.315Z,2.60
2022-08-22T11:24:17.363Z,2.60
2022-08-22T11:25:12.458Z,2.50
2022-08-22T11:26:11.442Z,2.60
2022-08-22T11:27:13.145Z,2.70
2022-08-22T11:28:12.418Z,2.40
2022-08-22T11:29:13.587Z,2.40
2022-08-22T11:30:11.434Z,2.30
2022-08-22T11:31:12.404Z,2.50
2022-08-22T11:32:11.426Z,2.40
2022-08-22T11:33:11.409Z,2.60
2022-08-22T11:34:11.398Z,2.40
2022-08-22T11:35:11.411Z,2.60
2022-08-22T11:36:11.400Z,2.50
2022-08-22T11:37:11.541Z,2.50
2022-08-22T11:38:11.391Z,2.60
2022-08-22T11:39:18.292Z,2.50
2022-08-22T11:40:12.433Z,2.60
2022-08-22T11:41:11.369Z,2.50
2022-08-22T11:42:11.394Z,2.50
2022-08-22T11:43:17.955Z,2.50
2022-08-22T11:44:12.361Z,2.40
2022-08-22T11:45:14.855Z,2.60
2022-08-22T11:46:11.349Z,2.70
2022-08-22T11:47:11.365Z,2.30
2022-08-22T11:48:11.358Z,2.40
2022-08-22T11:49:11.338Z,2.50
2022-08-22T11:50:13.624Z,2.60
2022-08-22T11:51:13.350Z,2.70
2022-08-22T11:52:11.337Z,2.50
2022-08-22T11:53:11.309Z,2.40
2022-08-22T11:54:11.322Z,2.50
2022-08-22T11:55:11.309Z,2.40
2022-08-22T11:56:11.293Z,2.50
2022-08-22T11:57:12.317Z,2.40
2022-08-22T11:58:11.297Z,2.60
2022-08-22T11:59:11.296Z,2.50
2022-08-22T12:00:11.285Z,2.20
2022-08-22T12:01:17.011Z,2.50
2022-08-22T12:02:13.316Z,2.60
2022-08-22T12:03:11.269Z,2.50
2022-08-22T12:04:12.862Z,2.50
2022-08-22T12:05:11.258Z,2.50
2022-08-22T12:06:12.254Z,2.60
2022-08-22T12:07:11.253Z,2.50
2022-08-22T12:08:11.414Z,2.60
2022-08-22T12:09:11.238Z,2.40
2022-08-22T12:10:13.591Z,2.60
2022-08-22T12:11:11.217Z,2.40
2022-08-22T12:12:11.222Z,2.30
2022-08-22T12:13:11.229Z,2.50
2022-08-22T12:14:11.295Z,2.30
2022-08-22T12:15:11.210Z,2.40
2022-08-22T12:16:11.201Z,2.50
2022-08-22T12:17:11.194Z,2.70
2022-08-22T12:18:14.345Z,2.80
2022-08-22T12:19:12.238Z,2.40
2022-08-22T12:20:18.697Z,2.70
2022-08-22T12:21:13.177Z,2.50
2022-08-22T12:22:11.180Z,2.40
2022-08-22T12:23:11.163Z,2.50
2022-08-22T12:24:19.231Z,2.50
2022-08-22T12:25:11.149Z,2.50
2022-08-22T12:26:11.249Z,2.60
2022-08-22T12:27:11.142Z,2.40
2022-08-22T12:28:11.134Z,2.30
2022-08-22T12:29:15.629Z,2.30
2022-08-22T12:30:13.731Z,2.40
2022-08-22T12:31:11.140Z,2.70
2022-08-22T12:32:11.117Z,2.40
2022-08-22T12:33:13.127Z,2.50
2022-08-22T12:34:11.117Z,2.60
2022-08-22T12:35:13.701Z,2.50
2022-08-22T12:36:17.999Z,2.40
2022-08-22T12:37:12.094Z,2.30
2022-08-22T12:38:28.888Z,3.00
2022-08-22T12:39:12.069Z,2.30
2022-08-22T12:40:11.148Z,2.50
2022-08-22T12:41:11.069Z,2.70
2022-08-22T12:42:11.053Z,2.50
2022-08-22T12:43:11.045Z,2.20
2022-08-22T12:44:16.055Z,2.40
2022-08-22T12:45:13.045Z,2.20
2022-08-22T12:46:13.375Z,2.40
2022-08-22T12:47:11.030Z,2.50
2022-08-22T12:48:11.040Z,2.60
2022-08-22T12:49:11.018Z,2.40
2022-08-22T12:50:11.029Z,2.50
2022-08-22T12:51:17.572Z,2.20
2022-08-22T12:52:11.997Z,2.30
2022-08-22T12:53:11.001Z,2.20
2022-08-22T12:54:10.982Z,2.40
2022-08-22T12:55:11.005Z,2.40
2022-08-22T12:56:10.984Z,2.40
2022-08-22T12:57:15.208Z,2.50
2022-08-22T12:58:11.971Z,2.50
2022-08-22T12:59:10.965Z,2.40
2022-08-22T13:00:11.701Z,2.30
2022-08-22T13:01:11.043Z,2.40
2022-08-22T13:02:10.972Z,2.20
2022-08-22T13:03:10.938Z,2.40
2022-08-22T13:04:10.925Z,2.30
2022-08-22T13:05:11.921Z,2.20
2022-08-22T13:06:13.682Z,2.30
2022-08-22T13:07:10.901Z,2.40
2022-08-22T13:08:10.909Z,2.30
2022-08-22T13:09:10.879Z,2.40
2022-08-22T13:10:10.984Z,2.30
2022-08-22T13:11:17.486Z,2.60
2022-08-22T13:12:11.893Z,2.50